sensor_id;sensor_type;location;lat;lon;timestamp;P1;durP1;ratioP1;P2;durP2;ratioP2
5688;SDS011;2869;50.432;8.680;2023-05-21T00:01:33;27.50;;;17.80;;
5688;SDS011;2869;50.432;8.680;2023-05-21T00:03:59;23.77;;;16.93;;
5688;SDS011;2869;50.432;8.680;2023-05-21T00:06:27;28.80;;;17.10;;
5688;SDS011;2869;50.432;8.680;2023-05-21T00:08:55;28.13;;;17.80;;
5688;SDS011;2869;50.432;8.680;2023-05-21T00:11:21;26.27;;;16.80;;
5688;SDS011;2869;50.432;8.680;2023-05-21T00:13:48;30.83;;;17.50;;
5688;SDS011;2869;50.432;8.680;2023-05-21T00:16:15;25.40;;;18.17;;
5688;SDS011;2869;50.432;8.680;2023-05-21T00:18:41;25.57;;;16.90;;
5688;SDS011;2869;50.432;8.680;2023-05-21T00:21:08;28.50;;;17.83;;
5688;SDS011;2869;50.432;8.680;2023-05-21T00:23:36;27.00;;;16.80;;
5688;SDS011;2869;50.432;8.680;2023-05-21T00:26:05;27.47;;;17.97;;
5688;SDS011;2869;50.432;8.680;2023-05-21T00:28:31;27.63;;;16.97;;
5688;SDS011;2869;50.432;8.680;2023-05-21T00:30:58;25.73;;;17.90;;
5688;SDS011;2869;50.432;8.680;2023-05-21T00:33:25;29.60;;;17.93;;
5688;SDS011;2869;50.432;8.680;2023-05-21T00:35:52;28.50;;;17.37;;
5688;SDS011;2869;50.432;8.680;2023-05-21T00:38:20;26.67;;;17.73;;
5688;SDS011;2869;50.432;8.680;2023-05-21T00:40:48;29.33;;;17.00;;
5688;SDS011;2869;50.432;8.680;2023-05-21T00:43:16;25.37;;;17.50;;
5688;SDS011;2869;50.432;8.680;2023-05-21T00:45:42;28.97;;;16.20;;
5688;SDS011;2869;50.432;8.680;2023-05-21T00:48:11;29.00;;;18.10;;
5688;SDS011;2869;50.432;8.680;2023-05-21T00:50:38;30.33;;;16.60;;
5688;SDS011;2869;50.432;8.680;2023-05-21T00:53:05;25.27;;;15.87;;
5688;SDS011;2869;50.432;8.680;2023-05-21T00:55:33;24.93;;;17.00;;
5688;SDS011;2869;50.432;8.680;2023-05-21T00:58:00;31.10;;;17.30;;
5688;SDS011;2869;50.432;8.680;2023-05-21T01:00:29;28.50;;;17.03;;
5688;SDS011;2869;50.432;8.680;2023-05-21T01:02:58;26.57;;;17.43;;
5688;SDS011;2869;50.432;8.680;2023-05-21T01:05:25;29.93;;;16.93;;
5688;SDS011;2869;50.432;8.680;2023-05-21T01:07:52;26.00;;;17.70;;
5688;SDS011;2869;50.432;8.680;2023-05-21T01:10:19;24.30;;;17.53;;
5688;SDS011;2869;50.432;8.680;2023-05-21T01:12:46;25.50;;;16.70;;
5688;SDS011;2869;50.432;8.680;2023-05-21T01:15:14;23.57;;;15.77;;
5688;SDS011;2869;50.432;8.680;2023-05-21T01:17:42;33.50;;;18.00;;
5688;SDS011;2869;50.432;8.680;2023-05-21T01:20:10;21.30;;;15.93;;
5688;SDS011;2869;50.432;8.680;2023-05-21T01:22:40;26.60;;;16.60;;
5688;SDS011;2869;50.432;8.680;2023-05-21T01:25:10;23.47;;;16.07;;
5688;SDS011;2869;50.432;8.680;2023-05-21T01:27:37;21.97;;;16.07;;
5688;SDS011;2869;50.432;8.680;2023-05-21T01:30:04;23.93;;;16.80;;
5688;SDS011;2869;50.432;8.680;2023-05-21T01:32:33;24.50;;;16.97;;
5688;SDS011;2869;50.432;8.680;2023-05-21T01:35:07;24.63;;;16.27;;
5688;SDS011;2869;50.432;8.680;2023-05-21T01:37:39;27.10;;;15.80;;
5688;SDS011;2869;50.432;8.680;2023-05-21T01:40:12;27.63;;;15.90;;
5688;SDS011;2869;50.432;8.680;2023-05-21T01:42:43;25.53;;;16.63;;
5688;SDS011;2869;50.432;8.680;2023-05-21T01:45:11;24.40;;;16.00;;
5688;SDS011;2869;50.432;8.680;2023-05-21T01:47:40;28.63;;;16.50;;
5688;SDS011;2869;50.432;8.680;2023-05-21T01:50:10;23.77;;;16.70;;
5688;SDS011;2869;50.432;8.680;2023-05-21T01:52:37;28.40;;;17.77;;
5688;SDS011;2869;50.432;8.680;2023-05-21T01:55:03;25.10;;;18.17;;
5688;SDS011;2869;50.432;8.680;2023-05-21T01:57:32;27.33;;;17.50;;
5688;SDS011;2869;50.432;8.680;2023-05-21T01:59:58;24.77;;;16.57;;
5688;SDS011;2869;50.432;8.680;2023-05-21T02:02:25;26.73;;;17.00;;
5688;SDS011;2869;50.432;8.680;2023-05-21T02:04:52;24.80;;;15.30;;
5688;SDS011;2869;50.432;8.680;2023-05-21T02:07:19;24.60;;;15.77;;
5688;SDS011;2869;50.432;8.680;2023-05-21T02:09:46;27.60;;;17.57;;
5688;SDS011;2869;50.432;8.680;2023-05-21T02:12:13;26.33;;;17.87;;
5688;SDS011;2869;50.432;8.680;2023-05-21T02:14:41;26.00;;;16.80;;
5688;SDS011;2869;50.432;8.680;2023-05-21T02:17:07;27.20;;;17.80;;
5688;SDS011;2869;50.432;8.680;2023-05-21T02:19:34;30.17;;;16.77;;
5688;SDS011;2869;50.432;8.680;2023-05-21T02:22:00;27.97;;;17.13;;
5688;SDS011;2869;50.432;8.680;2023-05-21T02:24:27;29.37;;;16.50;;
5688;SDS011;2869;50.432;8.680;2023-05-21T02:26:54;27.57;;;17.20;;
5688;SDS011;2869;50.432;8.680;2023-05-21T02:29:20;28.20;;;17.37;;
5688;SDS011;2869;50.432;8.680;2023-05-21T02:31:48;29.03;;;17.90;;
5688;SDS011;2869;50.432;8.680;2023-05-21T02:34:15;23.90;;;16.90;;
5688;SDS011;2869;50.432;8.680;2023-05-21T02:36:44;23.30;;;16.30;;
5688;SDS011;2869;50.432;8.680;2023-05-21T02:39:12;26.20;;;15.90;;
5688;SDS011;2869;50.432;8.680;2023-05-21T02:41:39;25.03;;;15.47;;
5688;SDS011;2869;50.432;8.680;2023-05-21T02:44:05;26.70;;;17.17;;
5688;SDS011;2869;50.432;8.680;2023-05-21T02:46:32;25.67;;;16.87;;
5688;SDS011;2869;50.432;8.680;2023-05-21T02:49:00;29.13;;;18.87;;
5688;SDS011;2869;50.432;8.680;2023-05-21T02:51:27;28.03;;;17.03;;
5688;SDS011;2869;50.432;8.680;2023-05-21T02:53:53;30.27;;;17.40;;
5688;SDS011;2869;50.432;8.680;2023-05-21T02:56:20;26.70;;;17.00;;
5688;SDS011;2869;50.432;8.680;2023-05-21T02:58:46;23.47;;;16.60;;
5688;SDS011;2869;50.432;8.680;2023-05-21T03:01:13;27.17;;;16.40;;
5688;SDS011;2869;50.432;8.680;2023-05-21T03:03:40;23.67;;;16.17;;
5688;SDS011;2869;50.432;8.680;2023-05-21T03:06:08;27.30;;;16.70;;
5688;SDS011;2869;50.432;8.680;2023-05-21T03:08:35;26.70;;;17.33;;
5688;SDS011;2869;50.432;8.680;2023-05-21T03:11:02;25.07;;;17.00;;
5688;SDS011;2869;50.432;8.680;2023-05-21T03:13:28;25.47;;;16.80;;
5688;SDS011;2869;50.432;8.680;2023-05-21T03:15:55;27.30;;;17.60;;
5688;SDS011;2869;50.432;8.680;2023-05-21T03:18:22;29.77;;;16.60;;
5688;SDS011;2869;50.432;8.680;2023-05-21T03:20:48;26.10;;;17.10;;
5688;SDS011;2869;50.432;8.680;2023-05-21T03:23:16;26.20;;;16.60;;
5688;SDS011;2869;50.432;8.680;2023-05-21T03:25:43;32.77;;;17.93;;
5688;SDS011;2869;50.432;8.680;2023-05-21T03:28:10;27.03;;;17.60;;
5688;SDS011;2869;50.432;8.680;2023-05-21T03:30:37;27.60;;;17.00;;
5688;SDS011;2869;50.432;8.680;2023-05-21T03:33:04;24.93;;;16.47;;
5688;SDS011;2869;50.432;8.680;2023-05-21T03:35:30;27.00;;;17.60;;
5688;SDS011;2869;50.432;8.680;2023-05-21T03:37:57;27.43;;;17.67;;
5688;SDS011;2869;50.432;8.680;2023-05-21T03:40:25;24.57;;;17.33;;
5688;SDS011;2869;50.432;8.680;2023-05-21T03:42:51;26.70;;;16.20;;
5688;SDS011;2869;50.432;8.680;2023-05-21T03:45:18;27.27;;;17.67;;
5688;SDS011;2869;50.432;8.680;2023-05-21T03:47:45;28.33;;;16.97;;
5688;SDS011;2869;50.432;8.680;2023-05-21T03:50:12;27.13;;;17.40;;
5688;SDS011;2869;50.432;8.680;2023-05-21T03:52:39;26.60;;;16.10;;
5688;SDS011;2869;50.432;8.680;2023-05-21T03:55:06;26.80;;;15.70;;
5688;SDS011;2869;50.432;8.680;2023-05-21T03:57:35;26.97;;;17.40;;
5688;SDS011;2869;50.432;8.680;2023-05-21T04:00:01;28.37;;;17.80;;
5688;SDS011;2869;50.432;8.680;2023-05-21T04:02:30;26.97;;;18.07;;
5688;SDS011;2869;50.432;8.680;2023-05-21T04:04:57;26.63;;;17.03;;
5688;SDS011;2869;50.432;8.680;2023-05-21T04:07:23;27.30;;;16.83;;
5688;SDS011;2869;50.432;8.680;2023-05-21T04:09:51;22.87;;;15.30;;
5688;SDS011;2869;50.432;8.680;2023-05-21T04:12:17;25.43;;;16.37;;
5688;SDS011;2869;50.432;8.680;2023-05-21T04:14:45;24.17;;;16.77;;
5688;SDS011;2869;50.432;8.680;2023-05-21T04:17:12;23.97;;;15.23;;
5688;SDS011;2869;50.432;8.680;2023-05-21T04:19:39;28.13;;;15.80;;
5688;SDS011;2869;50.432;8.680;2023-05-21T04:22:06;24.50;;;16.57;;
5688;SDS011;2869;50.432;8.680;2023-05-21T04:24:33;28.03;;;17.20;;
5688;SDS011;2869;50.432;8.680;2023-05-21T04:27:02;24.20;;;17.00;;
5688;SDS011;2869;50.432;8.680;2023-05-21T04:29:29;31.80;;;17.17;;
5688;SDS011;2869;50.432;8.680;2023-05-21T04:31:57;23.50;;;16.90;;
5688;SDS011;2869;50.432;8.680;2023-05-21T04:34:23;31.93;;;17.07;;
5688;SDS011;2869;50.432;8.680;2023-05-21T04:36:50;29.40;;;17.87;;
5688;SDS011;2869;50.432;8.680;2023-05-21T04:39:17;26.43;;;16.73;;
5688;SDS011;2869;50.432;8.680;2023-05-21T04:41:44;22.67;;;16.40;;
5688;SDS011;2869;50.432;8.680;2023-05-21T04:44:11;30.67;;;16.67;;
5688;SDS011;2869;50.432;8.680;2023-05-21T04:46:39;25.03;;;16.50;;
5688;SDS011;2869;50.432;8.680;2023-05-21T04:49:08;25.57;;;17.33;;
5688;SDS011;2869;50.432;8.680;2023-05-21T04:51:35;26.73;;;16.70;;
5688;SDS011;2869;50.432;8.680;2023-05-21T04:54:02;23.47;;;16.57;;
5688;SDS011;2869;50.432;8.680;2023-05-21T04:56:29;24.37;;;16.73;;
5688;SDS011;2869;50.432;8.680;2023-05-21T04:58:55;26.70;;;17.33;;
5688;SDS011;2869;50.432;8.680;2023-05-21T05:01:23;30.50;;;17.60;;
5688;SDS011;2869;50.432;8.680;2023-05-21T05:03:51;24.23;;;15.97;;
5688;SDS011;2869;50.432;8.680;2023-05-21T05:06:20;26.23;;;17.10;;
5688;SDS011;2869;50.432;8.680;2023-05-21T05:08:49;30.70;;;17.63;;
5688;SDS011;2869;50.432;8.680;2023-05-21T05:11:16;24.83;;;16.83;;
5688;SDS011;2869;50.432;8.680;2023-05-21T05:13:42;23.03;;;16.30;;
5688;SDS011;2869;50.432;8.680;2023-05-21T05:16:09;23.27;;;17.13;;
5688;SDS011;2869;50.432;8.680;2023-05-21T05:18:36;25.87;;;16.83;;
5688;SDS011;2869;50.432;8.680;2023-05-21T05:21:03;29.40;;;16.10;;
5688;SDS011;2869;50.432;8.680;2023-05-21T05:23:31;24.43;;;16.60;;
5688;SDS011;2869;50.432;8.680;2023-05-21T05:25:58;26.93;;;16.90;;
5688;SDS011;2869;50.432;8.680;2023-05-21T05:28:24;22.40;;;17.10;;
5688;SDS011;2869;50.432;8.680;2023-05-21T05:30:51;23.13;;;16.10;;
5688;SDS011;2869;50.432;8.680;2023-05-21T05:33:18;23.67;;;16.40;;
5688;SDS011;2869;50.432;8.680;2023-05-21T05:35:45;29.20;;;17.43;;
5688;SDS011;2869;50.432;8.680;2023-05-21T05:38:11;29.50;;;17.80;;
5688;SDS011;2869;50.432;8.680;2023-05-21T05:40:39;26.17;;;16.77;;
5688;SDS011;2869;50.432;8.680;2023-05-21T05:43:06;25.70;;;16.93;;
5688;SDS011;2869;50.432;8.680;2023-05-21T05:45:32;26.13;;;17.00;;
5688;SDS011;2869;50.432;8.680;2023-05-21T05:47:59;24.93;;;16.80;;
5688;SDS011;2869;50.432;8.680;2023-05-21T05:50:26;24.50;;;16.63;;
5688;SDS011;2869;50.432;8.680;2023-05-21T05:52:52;22.03;;;16.07;;
5688;SDS011;2869;50.432;8.680;2023-05-21T05:55:19;26.60;;;17.50;;
5688;SDS011;2869;50.432;8.680;2023-05-21T05:57:48;22.30;;;15.20;;
5688;SDS011;2869;50.432;8.680;2023-05-21T06:00:14;24.13;;;17.20;;
5688;SDS011;2869;50.432;8.680;2023-05-21T06:02:42;27.03;;;17.70;;
5688;SDS011;2869;50.432;8.680;2023-05-21T06:05:09;24.20;;;16.80;;
5688;SDS011;2869;50.432;8.680;2023-05-21T06:07:36;26.17;;;18.00;;
5688;SDS011;2869;50.432;8.680;2023-05-21T06:10:03;25.43;;;16.53;;
5688;SDS011;2869;50.432;8.680;2023-05-21T06:12:30;21.27;;;16.20;;
5688;SDS011;2869;50.432;8.680;2023-05-21T06:14:58;19.90;;;14.47;;
5688;SDS011;2869;50.432;8.680;2023-05-21T06:17:25;25.30;;;15.80;;
5688;SDS011;2869;50.432;8.680;2023-05-21T06:19:52;23.97;;;17.60;;
5688;SDS011;2869;50.432;8.680;2023-05-21T06:22:18;27.97;;;16.83;;
5688;SDS011;2869;50.432;8.680;2023-05-21T06:24:45;25.80;;;16.37;;
5688;SDS011;2869;50.432;8.680;2023-05-21T06:27:12;33.00;;;17.07;;
5688;SDS011;2869;50.432;8.680;2023-05-21T06:29:38;25.03;;;16.47;;
5688;SDS011;2869;50.432;8.680;2023-05-21T06:32:07;25.53;;;17.30;;
5688;SDS011;2869;50.432;8.680;2023-05-21T06:34:34;24.80;;;16.20;;
5688;SDS011;2869;50.432;8.680;2023-05-21T06:37:00;25.60;;;17.23;;
5688;SDS011;2869;50.432;8.680;2023-05-21T06:39:27;22.93;;;15.87;;
5688;SDS011;2869;50.432;8.680;2023-05-21T06:41:53;26.27;;;17.00;;
5688;SDS011;2869;50.432;8.680;2023-05-21T06:44:20;21.87;;;15.90;;
5688;SDS011;2869;50.432;8.680;2023-05-21T06:46:47;27.77;;;16.87;;
5688;SDS011;2869;50.432;8.680;2023-05-21T06:49:15;25.90;;;17.20;;
5688;SDS011;2869;50.432;8.680;2023-05-21T06:51:41;24.73;;;16.90;;
5688;SDS011;2869;50.432;8.680;2023-05-21T06:54:08;23.37;;;15.90;;
5688;SDS011;2869;50.432;8.680;2023-05-21T06:56:35;23.23;;;17.33;;
5688;SDS011;2869;50.432;8.680;2023-05-21T06:59:01;23.03;;;15.70;;
5688;SDS011;2869;50.432;8.680;2023-05-21T07:01:28;20.40;;;15.50;;
5688;SDS011;2869;50.432;8.680;2023-05-21T07:03:54;23.33;;;16.27;;
5688;SDS011;2869;50.432;8.680;2023-05-21T07:06:22;24.73;;;16.27;;
5688;SDS011;2869;50.432;8.680;2023-05-21T07:08:49;29.17;;;15.63;;
5688;SDS011;2869;50.432;8.680;2023-05-21T07:11:16;23.03;;;15.80;;
5688;SDS011;2869;50.432;8.680;2023-05-21T07:13:42;25.00;;;16.67;;
5688;SDS011;2869;50.432;8.680;2023-05-21T07:16:10;22.20;;;15.60;;
5688;SDS011;2869;50.432;8.680;2023-05-21T07:18:37;25.40;;;15.90;;
5688;SDS011;2869;50.432;8.680;2023-05-21T07:21:04;22.60;;;16.17;;
5688;SDS011;2869;50.432;8.680;2023-05-21T07:23:32;22.07;;;16.67;;
5688;SDS011;2869;50.432;8.680;2023-05-21T07:25:58;22.33;;;16.07;;
5688;SDS011;2869;50.432;8.680;2023-05-21T07:28:25;27.57;;;16.60;;
5688;SDS011;2869;50.432;8.680;2023-05-21T07:30:51;20.23;;;15.17;;
5688;SDS011;2869;50.432;8.680;2023-05-21T07:33:18;25.13;;;15.10;;
5688;SDS011;2869;50.432;8.680;2023-05-21T07:35:46;26.37;;;16.23;;
5688;SDS011;2869;50.432;8.680;2023-05-21T07:38:13;22.27;;;16.33;;
5688;SDS011;2869;50.432;8.680;2023-05-21T07:40:41;21.03;;;15.07;;
5688;SDS011;2869;50.432;8.680;2023-05-21T07:43:08;24.30;;;15.60;;
5688;SDS011;2869;50.432;8.680;2023-05-21T07:45:34;18.77;;;15.07;;
5688;SDS011;2869;50.432;8.680;2023-05-21T07:48:01;20.20;;;14.90;;
5688;SDS011;2869;50.432;8.680;2023-05-21T07:50:27;22.37;;;15.37;;
5688;SDS011;2869;50.432;8.680;2023-05-21T07:52:55;22.27;;;15.80;;
5688;SDS011;2869;50.432;8.680;2023-05-21T07:55:21;20.37;;;16.20;;
5688;SDS011;2869;50.432;8.680;2023-05-21T07:57:49;27.97;;;15.90;;
5688;SDS011;2869;50.432;8.680;2023-05-21T08:00:22;22.57;;;15.23;;
5688;SDS011;2869;50.432;8.680;2023-05-21T08:02:49;22.43;;;15.40;;
5688;SDS011;2869;50.432;8.680;2023-05-21T08:05:16;24.80;;;15.83;;
5688;SDS011;2869;50.432;8.680;2023-05-21T08:07:43;20.00;;;15.07;;
5688;SDS011;2869;50.432;8.680;2023-05-21T08:10:10;20.63;;;15.30;;
5688;SDS011;2869;50.432;8.680;2023-05-21T08:12:36;21.77;;;16.57;;
5688;SDS011;2869;50.432;8.680;2023-05-21T08:15:05;19.27;;;15.20;;
5688;SDS011;2869;50.432;8.680;2023-05-21T08:17:32;20.67;;;15.93;;
5688;SDS011;2869;50.432;8.680;2023-05-21T08:19:59;22.70;;;15.80;;
5688;SDS011;2869;50.432;8.680;2023-05-21T08:22:25;21.20;;;15.30;;
5688;SDS011;2869;50.432;8.680;2023-05-21T08:24:52;18.23;;;15.03;;
5688;SDS011;2869;50.432;8.680;2023-05-21T08:27:19;20.30;;;14.73;;
5688;SDS011;2869;50.432;8.680;2023-05-21T08:29:46;20.20;;;16.37;;
5688;SDS011;2869;50.432;8.680;2023-05-21T08:32:13;22.83;;;16.30;;
5688;SDS011;2869;50.432;8.680;2023-05-21T08:34:40;22.10;;;15.60;;
5688;SDS011;2869;50.432;8.680;2023-05-21T08:37:07;23.50;;;16.57;;
5688;SDS011;2869;50.432;8.680;2023-05-21T08:39:33;20.90;;;15.97;;
5688;SDS011;2869;50.432;8.680;2023-05-21T08:42:01;20.23;;;15.23;;
5688;SDS011;2869;50.432;8.680;2023-05-21T08:44:34;22.80;;;15.40;;
5688;SDS011;2869;50.432;8.680;2023-05-21T08:47:06;25.70;;;16.20;;
5688;SDS011;2869;50.432;8.680;2023-05-21T08:49:36;21.33;;;16.13;;
5688;SDS011;2869;50.432;8.680;2023-05-21T08:52:03;21.30;;;15.40;;
5688;SDS011;2869;50.432;8.680;2023-05-21T08:54:31;21.70;;;15.60;;
5688;SDS011;2869;50.432;8.680;2023-05-21T08:56:58;19.30;;;14.67;;
5688;SDS011;2869;50.432;8.680;2023-05-21T08:59:26;22.40;;;15.37;;
5688;SDS011;2869;50.432;8.680;2023-05-21T09:01:53;23.37;;;16.07;;
5688;SDS011;2869;50.432;8.680;2023-05-21T09:04:21;22.17;;;14.97;;
5688;SDS011;2869;50.432;8.680;2023-05-21T09:06:50;16.97;;;13.80;;
5688;SDS011;2869;50.432;8.680;2023-05-21T09:09:19;18.20;;;15.70;;
5688;SDS011;2869;50.432;8.680;2023-05-21T09:11:52;16.90;;;14.10;;
5688;SDS011;2869;50.432;8.680;2023-05-21T09:14:19;23.60;;;14.00;;
5688;SDS011;2869;50.432;8.680;2023-05-21T09:16:47;17.43;;;13.50;;
5688;SDS011;2869;50.432;8.680;2023-05-21T09:19:14;16.97;;;13.80;;
5688;SDS011;2869;50.432;8.680;2023-05-21T09:21:41;19.50;;;14.77;;
5688;SDS011;2869;50.432;8.680;2023-05-21T09:24:09;18.13;;;14.40;;
5688;SDS011;2869;50.432;8.680;2023-05-21T09:26:35;18.33;;;13.73;;
5688;SDS011;2869;50.432;8.680;2023-05-21T09:29:02;22.03;;;13.67;;
5688;SDS011;2869;50.432;8.680;2023-05-21T09:31:29;18.73;;;14.37;;
5688;SDS011;2869;50.432;8.680;2023-05-21T09:33:56;18.23;;;12.13;;
5688;SDS011;2869;50.432;8.680;2023-05-21T09:36:23;18.43;;;13.90;;
5688;SDS011;2869;50.432;8.680;2023-05-21T09:38:50;17.17;;;13.10;;
5688;SDS011;2869;50.432;8.680;2023-05-21T09:41:18;24.23;;;15.27;;
5688;SDS011;2869;50.432;8.680;2023-05-21T09:43:45;14.37;;;12.87;;
5688;SDS011;2869;50.432;8.680;2023-05-21T09:46:12;16.60;;;12.50;;
5688;SDS011;2869;50.432;8.680;2023-05-21T09:48:39;18.63;;;13.00;;
5688;SDS011;2869;50.432;8.680;2023-05-21T09:51:08;18.50;;;14.40;;
5688;SDS011;2869;50.432;8.680;2023-05-21T09:53:35;16.57;;;13.00;;
5688;SDS011;2869;50.432;8.680;2023-05-21T09:56:02;17.30;;;13.10;;
5688;SDS011;2869;50.432;8.680;2023-05-21T09:58:30;12.93;;;11.57;;
5688;SDS011;2869;50.432;8.680;2023-05-21T10:00:59;17.67;;;12.67;;
5688;SDS011;2869;50.432;8.680;2023-05-21T10:03:26;13.63;;;12.10;;
5688;SDS011;2869;50.432;8.680;2023-05-21T10:05:54;16.50;;;12.80;;
5688;SDS011;2869;50.432;8.680;2023-05-21T10:08:25;21.40;;;15.37;;
5688;SDS011;2869;50.432;8.680;2023-05-21T10:10:53;17.53;;;13.37;;
5688;SDS011;2869;50.432;8.680;2023-05-21T10:13:20;16.10;;;13.90;;
5688;SDS011;2869;50.432;8.680;2023-05-21T10:15:56;17.90;;;14.10;;
5688;SDS011;2869;50.432;8.680;2023-05-21T10:18:26;16.23;;;13.63;;
5688;SDS011;2869;50.432;8.680;2023-05-21T10:20:54;20.20;;;14.50;;
5688;SDS011;2869;50.432;8.680;2023-05-21T10:23:22;15.53;;;13.53;;
5688;SDS011;2869;50.432;8.680;2023-05-21T10:25:49;20.10;;;12.97;;
5688;SDS011;2869;50.432;8.680;2023-05-21T10:28:17;20.50;;;12.80;;
5688;SDS011;2869;50.432;8.680;2023-05-21T10:30:45;17.70;;;14.07;;
5688;SDS011;2869;50.432;8.680;2023-05-21T10:33:13;17.93;;;12.70;;
5688;SDS011;2869;50.432;8.680;2023-05-21T10:35:41;15.07;;;12.80;;
5688;SDS011;2869;50.432;8.680;2023-05-21T10:38:09;16.73;;;12.60;;
5688;SDS011;2869;50.432;8.680;2023-05-21T10:40:38;18.43;;;14.27;;
5688;SDS011;2869;50.432;8.680;2023-05-21T10:43:09;19.07;;;13.30;;
5688;SDS011;2869;50.432;8.680;2023-05-21T10:46:02;17.73;;;12.27;;
5688;SDS011;2869;50.432;8.680;2023-05-21T10:48:46;16.80;;;13.33;;
5688;SDS011;2869;50.432;8.680;2023-05-21T10:51:37;15.50;;;13.30;;
5688;SDS011;2869;50.432;8.680;2023-05-21T11:00:36;14.63;;;13.13;;
5688;SDS011;2869;50.432;8.680;2023-05-21T11:03:04;18.20;;;12.67;;
5688;SDS011;2869;50.432;8.680;2023-05-21T11:05:50;14.90;;;13.33;;
5688;SDS011;2869;50.432;8.680;2023-05-21T11:08:18;14.77;;;12.47;;
5688;SDS011;2869;50.432;8.680;2023-05-21T11:10:50;14.30;;;12.53;;
5688;SDS011;2869;50.432;8.680;2023-05-21T11:13:18;14.17;;;11.97;;
5688;SDS011;2869;50.432;8.680;2023-05-21T11:21:32;24.73;;;12.77;;
5688;SDS011;2869;50.432;8.680;2023-05-21T11:24:00;16.10;;;12.73;;
5688;SDS011;2869;50.432;8.680;2023-05-21T11:29:30;12.40;;;11.17;;
5688;SDS011;2869;50.432;8.680;2023-05-21T11:32:04;14.00;;;11.40;;
5688;SDS011;2869;50.432;8.680;2023-05-21T11:34:35;10.50;;;9.40;;
5688;SDS011;2869;50.432;8.680;2023-05-21T11:39:54;10.20;;;9.10;;
5688;SDS011;2869;50.432;8.680;2023-05-21T11:42:26;11.32;;;9.20;;
5688;SDS011;2869;50.432;8.680;2023-05-21T11:44:57;13.00;;;9.27;;
5688;SDS011;2869;50.432;8.680;2023-05-21T11:47:25;10.60;;;9.07;;
5688;SDS011;2869;50.432;8.680;2023-05-21T11:49:52;12.87;;;9.23;;
5688;SDS011;2869;50.432;8.680;2023-05-21T11:52:20;14.30;;;9.57;;
5688;SDS011;2869;50.432;8.680;2023-05-21T11:54:49;9.63;;;8.23;;
5688;SDS011;2869;50.432;8.680;2023-05-21T11:57:19;13.47;;;8.77;;
5688;SDS011;2869;50.432;8.680;2023-05-21T11:59:46;12.20;;;8.73;;
5688;SDS011;2869;50.432;8.680;2023-05-21T12:02:13;14.07;;;9.90;;
5688;SDS011;2869;50.432;8.680;2023-05-21T12:04:41;9.20;;;8.30;;
5688;SDS011;2869;50.432;8.680;2023-05-21T12:07:09;10.80;;;8.50;;
5688;SDS011;2869;50.432;8.680;2023-05-21T12:09:37;11.80;;;9.00;;
5688;SDS011;2869;50.432;8.680;2023-05-21T12:12:06;10.20;;;9.17;;
5688;SDS011;2869;50.432;8.680;2023-05-21T12:14:33;10.20;;;8.67;;
5688;SDS011;2869;50.432;8.680;2023-05-21T12:17:01;13.13;;;10.27;;
5688;SDS011;2869;50.432;8.680;2023-05-21T12:19:30;11.30;;;9.70;;
5688;SDS011;2869;50.432;8.680;2023-05-21T12:21:58;11.50;;;8.97;;
5688;SDS011;2869;50.432;8.680;2023-05-21T12:24:26;10.40;;;9.27;;
5688;SDS011;2869;50.432;8.680;2023-05-21T12:26:53;11.43;;;8.10;;
5688;SDS011;2869;50.432;8.680;2023-05-21T12:29:24;9.70;;;8.80;;
5688;SDS011;2869;50.432;8.680;2023-05-21T12:31:51;11.13;;;8.80;;
5688;SDS011;2869;50.432;8.680;2023-05-21T12:37:03;10.70;;;8.70;;
5688;SDS011;2869;50.432;8.680;2023-05-21T12:39:30;11.43;;;8.90;;
5688;SDS011;2869;50.432;8.680;2023-05-21T12:41:57;10.87;;;9.77;;
5688;SDS011;2869;50.432;8.680;2023-05-21T12:44:29;12.00;;;9.27;;
5688;SDS011;2869;50.432;8.680;2023-05-21T12:46:56;9.77;;;8.77;;
5688;SDS011;2869;50.432;8.680;2023-05-21T12:49:29;10.33;;;9.33;;
5688;SDS011;2869;50.432;8.680;2023-05-21T12:52:03;9.68;;;8.68;;
5688;SDS011;2869;50.432;8.680;2023-05-21T12:54:33;10.67;;;8.50;;
5688;SDS011;2869;50.432;8.680;2023-05-21T12:57:07;10.70;;;9.23;;
5688;SDS011;2869;50.432;8.680;2023-05-21T12:59:45;15.23;;;9.90;;
5688;SDS011;2869;50.432;8.680;2023-05-21T13:02:20;12.90;;;9.40;;
5688;SDS011;2869;50.432;8.680;2023-05-21T13:04:52;13.33;;;9.10;;
5688;SDS011;2869;50.432;8.680;2023-05-21T13:07:20;12.33;;;10.30;;
5688;SDS011;2869;50.432;8.680;2023-05-21T13:09:47;18.30;;;14.70;;
5688;SDS011;2869;50.432;8.680;2023-05-21T13:12:14;10.77;;;8.33;;
5688;SDS011;2869;50.432;8.680;2023-05-21T13:14:40;11.30;;;9.02;;
5688;SDS011;2869;50.432;8.680;2023-05-21T13:17:08;11.83;;;9.20;;
5688;SDS011;2869;50.432;8.680;2023-05-21T13:19:36;13.13;;;9.90;;
5688;SDS011;2869;50.432;8.680;2023-05-21T13:22:02;9.70;;;8.70;;
5688;SDS011;2869;50.432;8.680;2023-05-21T13:24:31;14.23;;;10.43;;
5688;SDS011;2869;50.432;8.680;2023-05-21T13:26:57;13.87;;;10.70;;
5688;SDS011;2869;50.432;8.680;2023-05-21T13:29:24;14.47;;;10.77;;
5688;SDS011;2869;50.432;8.680;2023-05-21T13:31:51;15.17;;;10.60;;
5688;SDS011;2869;50.432;8.680;2023-05-21T13:34:19;15.83;;;11.57;;
5688;SDS011;2869;50.432;8.680;2023-05-21T13:36:45;14.93;;;11.03;;
5688;SDS011;2869;50.432;8.680;2023-05-21T13:39:12;14.30;;;11.10;;
5688;SDS011;2869;50.432;8.680;2023-05-21T13:41:38;14.80;;;10.37;;
5688;SDS011;2869;50.432;8.680;2023-05-21T13:44:06;14.60;;;9.80;;
5688;SDS011;2869;50.432;8.680;2023-05-21T13:46:33;17.57;;;12.10;;
5688;SDS011;2869;50.432;8.680;2023-05-21T13:49:03;9.90;;;8.60;;
5688;SDS011;2869;50.432;8.680;2023-05-21T13:51:31;11.83;;;8.57;;
5688;SDS011;2869;50.432;8.680;2023-05-21T13:53:58;12.53;;;9.10;;
5688;SDS011;2869;50.432;8.680;2023-05-21T13:56:24;12.50;;;8.30;;
5688;SDS011;2869;50.432;8.680;2023-05-21T13:58:51;10.17;;;9.10;;
5688;SDS011;2869;50.432;8.680;2023-05-21T14:01:18;11.90;;;9.40;;
5688;SDS011;2869;50.432;8.680;2023-05-21T14:03:44;9.73;;;7.97;;
5688;SDS011;2869;50.432;8.680;2023-05-21T14:06:11;10.60;;;8.93;;
5688;SDS011;2869;50.432;8.680;2023-05-21T14:08:39;11.13;;;8.80;;
5688;SDS011;2869;50.432;8.680;2023-05-21T14:11:05;10.53;;;8.90;;
5688;SDS011;2869;50.432;8.680;2023-05-21T14:13:32;11.33;;;9.07;;
5688;SDS011;2869;50.432;8.680;2023-05-21T14:15:59;9.77;;;8.77;;
5688;SDS011;2869;50.432;8.680;2023-05-21T14:18:25;10.60;;;8.67;;
5688;SDS011;2869;50.432;8.680;2023-05-21T14:20:52;11.80;;;9.77;;
5688;SDS011;2869;50.432;8.680;2023-05-21T14:23:19;10.30;;;9.20;;
5688;SDS011;2869;50.432;8.680;2023-05-21T14:25:47;11.80;;;9.13;;
5688;SDS011;2869;50.432;8.680;2023-05-21T14:28:13;9.90;;;8.90;;
5688;SDS011;2869;50.432;8.680;2023-05-21T14:30:40;10.80;;;9.40;;
5688;SDS011;2869;50.432;8.680;2023-05-21T14:33:06;12.40;;;8.97;;
5688;SDS011;2869;50.432;8.680;2023-05-21T14:35:33;11.73;;;8.90;;
5688;SDS011;2869;50.432;8.680;2023-05-21T14:38:00;9.90;;;9.00;;
5688;SDS011;2869;50.432;8.680;2023-05-21T14:40:26;12.20;;;9.00;;
5688;SDS011;2869;50.432;8.680;2023-05-21T14:42:54;14.60;;;9.23;;
5688;SDS011;2869;50.432;8.680;2023-05-21T14:45:21;9.87;;;8.77;;
5688;SDS011;2869;50.432;8.680;2023-05-21T14:47:47;10.60;;;9.43;;
5688;SDS011;2869;50.432;8.680;2023-05-21T14:50:15;12.47;;;9.03;;
5688;SDS011;2869;50.432;8.680;2023-05-21T14:52:42;15.07;;;9.60;;
5688;SDS011;2869;50.432;8.680;2023-05-21T14:55:09;11.50;;;8.53;;
5688;SDS011;2869;50.432;8.680;2023-05-21T14:57:36;11.00;;;9.20;;
5688;SDS011;2869;50.432;8.680;2023-05-21T15:00:04;9.70;;;8.27;;
5688;SDS011;2869;50.432;8.680;2023-05-21T15:02:32;10.33;;;9.23;;
5688;SDS011;2869;50.432;8.680;2023-05-21T15:04:58;9.33;;;8.33;;
5688;SDS011;2869;50.432;8.680;2023-05-21T15:07:25;9.50;;;8.23;;
5688;SDS011;2869;50.432;8.680;2023-05-21T15:09:52;10.23;;;9.03;;
5688;SDS011;2869;50.432;8.680;2023-05-21T15:12:18;9.67;;;8.00;;
5688;SDS011;2869;50.432;8.680;2023-05-21T15:14:45;10.40;;;8.50;;